KSUE/SUE METAR and TAF weather

Enter ICAO airport designator
Station Type Date Time Source
KSUE METAR 2019/08/20 09:56 UTC NOAA

KSUE 200956Z AUTO 00000KT 10SM CLR 14/14 A3004 RMK AO2 SLP168 T01440139


Station Type Date Time Source
KSUE Decoded METAR 2019/08/20 09:56 UTC NOAA

Sturgeon Bay, WI, United States (KSUE) 44-51N 087-25W
Aug 20, 2019 - 05:56 AM EDT / 2019.08.20 0956 UTC
Wind: Calm:0
Visibility: 10 mile(s):0
Sky conditions: clear
Temperature: 57.9 F (14.4 C)
Dew Point: 57.0 F (13.9 C)
Relative Humidity: 96%
Pressure (altimeter): 30.04 in. Hg (1017 hPa)
ob: KSUE 200956Z AUTO 00000KT 10SM CLR 14/14 A3004 RMK AO2 SLP168 T01440139
cycle: 10

Station Type Date Time Source
KSUE TAF UTC NOAA

Error!

Example: see airport list